sensor_id;sensor_type;location;lat;lon;timestamp;P1;durP1;ratioP1;P2;durP2;ratioP2
35245;SDS011;21379;50.962;6.960;2023-04-16T00:02:12;20.05;;;7.90;;
35245;SDS011;21379;50.962;6.960;2023-04-16T00:04:39;22.92;;;9.95;;
35245;SDS011;21379;50.962;6.960;2023-04-16T00:07:06;18.38;;;7.60;;
35245;SDS011;21379;50.962;6.960;2023-04-16T00:09:35;20.85;;;8.23;;
35245;SDS011;21379;50.962;6.960;2023-04-16T00:12:02;21.38;;;7.22;;
35245;SDS011;21379;50.962;6.960;2023-04-16T00:14:30;18.60;;;7.93;;
35245;SDS011;21379;50.962;6.960;2023-04-16T00:16:57;25.30;;;7.05;;
35245;SDS011;21379;50.962;6.960;2023-04-16T00:19:24;15.57;;;7.38;;
35245;SDS011;21379;50.962;6.960;2023-04-16T00:21:52;18.92;;;8.20;;
35245;SDS011;21379;50.962;6.960;2023-04-16T00:24:19;22.77;;;7.70;;
35245;SDS011;21379;50.962;6.960;2023-04-16T00:26:47;21.27;;;7.20;;
35245;SDS011;21379;50.962;6.960;2023-04-16T00:29:14;23.95;;;7.40;;
35245;SDS011;21379;50.962;6.960;2023-04-16T00:31:41;18.33;;;7.07;;
35245;SDS011;21379;50.962;6.960;2023-04-16T00:34:08;14.45;;;6.90;;
35245;SDS011;21379;50.962;6.960;2023-04-16T00:36:35;24.35;;;6.47;;
35245;SDS011;21379;50.962;6.960;2023-04-16T00:39:02;28.17;;;8.02;;
35245;SDS011;21379;50.962;6.960;2023-04-16T00:41:29;16.88;;;7.65;;
35245;SDS011;21379;50.962;6.960;2023-04-16T00:43:57;29.17;;;7.82;;
35245;SDS011;21379;50.962;6.960;2023-04-16T00:46:24;21.13;;;7.90;;
35245;SDS011;21379;50.962;6.960;2023-04-16T00:48:52;17.98;;;7.78;;
35245;SDS011;21379;50.962;6.960;2023-04-16T00:51:20;19.90;;;8.65;;
35245;SDS011;21379;50.962;6.960;2023-04-16T00:53:47;19.77;;;8.50;;
35245;SDS011;21379;50.962;6.960;2023-04-16T00:56:14;28.50;;;9.10;;
35245;SDS011;21379;50.962;6.960;2023-04-16T00:58:41;18.05;;;7.65;;
35245;SDS011;21379;50.962;6.960;2023-04-16T01:01:10;18.60;;;8.13;;
35245;SDS011;21379;50.962;6.960;2023-04-16T01:03:38;19.80;;;8.65;;
35245;SDS011;21379;50.962;6.960;2023-04-16T01:06:08;29.17;;;8.38;;
35245;SDS011;21379;50.962;6.960;2023-04-16T01:08:36;27.08;;;9.25;;
35245;SDS011;21379;50.962;6.960;2023-04-16T01:11:03;25.63;;;10.43;;
35245;SDS011;21379;50.962;6.960;2023-04-16T01:13:31;29.73;;;9.60;;
35245;SDS011;21379;50.962;6.960;2023-04-16T01:15:58;41.60;;;13.85;;
35245;SDS011;21379;50.962;6.960;2023-04-16T01:18:27;25.35;;;10.60;;
35245;SDS011;21379;50.962;6.960;2023-04-16T01:20:55;19.58;;;8.70;;
35245;SDS011;21379;50.962;6.960;2023-04-16T01:23:22;27.00;;;10.43;;
35245;SDS011;21379;50.962;6.960;2023-04-16T01:25:55;37.97;;;10.35;;
35245;SDS011;21379;50.962;6.960;2023-04-16T01:28:25;21.75;;;9.18;;
35245;SDS011;21379;50.962;6.960;2023-04-16T01:30:52;30.45;;;10.23;;
35245;SDS011;21379;50.962;6.960;2023-04-16T01:33:40;22.02;;;8.98;;
35245;SDS011;21379;50.962;6.960;2023-04-16T01:36:11;28.83;;;10.65;;
35245;SDS011;21379;50.962;6.960;2023-04-16T01:38:38;24.55;;;9.15;;
35245;SDS011;21379;50.962;6.960;2023-04-16T01:41:05;20.83;;;8.02;;
35245;SDS011;21379;50.962;6.960;2023-04-16T01:43:33;26.63;;;8.32;;
35245;SDS011;21379;50.962;6.960;2023-04-16T01:46:08;29.60;;;9.07;;
35245;SDS011;21379;50.962;6.960;2023-04-16T01:48:38;19.15;;;7.78;;
35245;SDS011;21379;50.962;6.960;2023-04-16T01:51:05;17.40;;;9.23;;
35245;SDS011;21379;50.962;6.960;2023-04-16T01:53:34;24.35;;;8.18;;
35245;SDS011;21379;50.962;6.960;2023-04-16T01:56:01;23.95;;;7.97;;
35245;SDS011;21379;50.962;6.960;2023-04-16T01:58:28;34.17;;;8.88;;
35245;SDS011;21379;50.962;6.960;2023-04-16T02:00:55;15.60;;;8.15;;
35245;SDS011;21379;50.962;6.960;2023-04-16T02:03:22;41.72;;;9.20;;
35245;SDS011;21379;50.962;6.960;2023-04-16T02:05:49;21.42;;;8.85;;
35245;SDS011;21379;50.962;6.960;2023-04-16T02:08:16;14.63;;;7.75;;
35245;SDS011;21379;50.962;6.960;2023-04-16T02:10:46;28.88;;;9.07;;
35245;SDS011;21379;50.962;6.960;2023-04-16T02:13:15;17.88;;;6.70;;
35245;SDS011;21379;50.962;6.960;2023-04-16T02:15:44;19.15;;;7.28;;
35245;SDS011;21379;50.962;6.960;2023-04-16T02:18:13;17.60;;;8.27;;
35245;SDS011;21379;50.962;6.960;2023-04-16T02:20:40;17.35;;;8.27;;
35245;SDS011;21379;50.962;6.960;2023-04-16T02:23:08;26.45;;;8.98;;
35245;SDS011;21379;50.962;6.960;2023-04-16T02:25:39;17.20;;;7.97;;
35245;SDS011;21379;50.962;6.960;2023-04-16T02:28:09;16.92;;;8.30;;
35245;SDS011;21379;50.962;6.960;2023-04-16T02:30:39;25.05;;;8.95;;
35245;SDS011;21379;50.962;6.960;2023-04-16T02:33:07;26.90;;;9.10;;
35245;SDS011;21379;50.962;6.960;2023-04-16T02:35:38;23.10;;;8.75;;
35245;SDS011;21379;50.962;6.960;2023-04-16T02:38:05;23.80;;;8.85;;
35245;SDS011;21379;50.962;6.960;2023-04-16T02:40:34;31.52;;;9.57;;
35245;SDS011;21379;50.962;6.960;2023-04-16T02:43:01;20.98;;;8.13;;
35245;SDS011;21379;50.962;6.960;2023-04-16T02:45:29;21.48;;;7.68;;
35245;SDS011;21379;50.962;6.960;2023-04-16T02:47:56;23.10;;;7.40;;
35245;SDS011;21379;50.962;6.960;2023-04-16T02:50:23;25.73;;;8.02;;
35245;SDS011;21379;50.962;6.960;2023-04-16T02:52:50;16.85;;;7.28;;
35245;SDS011;21379;50.962;6.960;2023-04-16T02:55:17;32.75;;;9.95;;
35245;SDS011;21379;50.962;6.960;2023-04-16T02:57:44;18.58;;;7.57;;
35245;SDS011;21379;50.962;6.960;2023-04-16T03:00:12;15.77;;;6.40;;
35245;SDS011;21379;50.962;6.960;2023-04-16T03:02:40;22.25;;;8.43;;
35245;SDS011;21379;50.962;6.960;2023-04-16T03:05:08;20.65;;;9.73;;
35245;SDS011;21379;50.962;6.960;2023-04-16T03:07:36;20.70;;;8.27;;
35245;SDS011;21379;50.962;6.960;2023-04-16T03:10:05;23.63;;;8.85;;
35245;SDS011;21379;50.962;6.960;2023-04-16T03:12:33;24.42;;;10.13;;
35245;SDS011;21379;50.962;6.960;2023-04-16T03:15:00;30.83;;;9.68;;
35245;SDS011;21379;50.962;6.960;2023-04-16T03:17:28;27.45;;;9.63;;
35245;SDS011;21379;50.962;6.960;2023-04-16T03:19:56;32.63;;;10.18;;
35245;SDS011;21379;50.962;6.960;2023-04-16T03:22:23;28.08;;;10.68;;
35245;SDS011;21379;50.962;6.960;2023-04-16T03:24:51;31.50;;;12.30;;
35245;SDS011;21379;50.962;6.960;2023-04-16T03:27:18;33.22;;;10.75;;
35245;SDS011;21379;50.962;6.960;2023-04-16T03:29:45;39.65;;;13.07;;
35245;SDS011;21379;50.962;6.960;2023-04-16T03:32:12;31.27;;;13.25;;
35245;SDS011;21379;50.962;6.960;2023-04-16T03:34:39;34.10;;;12.32;;
35245;SDS011;21379;50.962;6.960;2023-04-16T03:37:07;31.40;;;10.45;;
35245;SDS011;21379;50.962;6.960;2023-04-16T03:39:36;28.27;;;11.85;;
35245;SDS011;21379;50.962;6.960;2023-04-16T03:42:03;36.58;;;13.73;;
35245;SDS011;21379;50.962;6.960;2023-04-16T03:44:31;21.48;;;10.10;;
35245;SDS011;21379;50.962;6.960;2023-04-16T03:46:58;28.73;;;12.98;;
35245;SDS011;21379;50.962;6.960;2023-04-16T03:49:25;43.90;;;14.00;;
35245;SDS011;21379;50.962;6.960;2023-04-16T03:51:52;43.53;;;13.23;;
35245;SDS011;21379;50.962;6.960;2023-04-16T03:54:20;39.80;;;14.52;;
35245;SDS011;21379;50.962;6.960;2023-04-16T03:56:52;51.95;;;16.17;;
35245;SDS011;21379;50.962;6.960;2023-04-16T03:59:19;43.28;;;14.90;;
35245;SDS011;21379;50.962;6.960;2023-04-16T04:01:46;44.70;;;15.02;;
35245;SDS011;21379;50.962;6.960;2023-04-16T04:04:13;45.72;;;16.42;;
35245;SDS011;21379;50.962;6.960;2023-04-16T04:06:40;48.67;;;15.52;;
35245;SDS011;21379;50.962;6.960;2023-04-16T04:09:07;52.80;;;15.10;;
35245;SDS011;21379;50.962;6.960;2023-04-16T04:11:36;42.78;;;16.52;;
35245;SDS011;21379;50.962;6.960;2023-04-16T04:14:03;42.45;;;15.68;;
35245;SDS011;21379;50.962;6.960;2023-04-16T04:16:30;51.67;;;16.40;;
35245;SDS011;21379;50.962;6.960;2023-04-16T04:18:58;53.30;;;16.52;;
35245;SDS011;21379;50.962;6.960;2023-04-16T04:21:25;42.95;;;16.98;;
35245;SDS011;21379;50.962;6.960;2023-04-16T04:23:52;54.97;;;19.20;;
35245;SDS011;21379;50.962;6.960;2023-04-16T04:26:19;68.60;;;19.48;;
35245;SDS011;21379;50.962;6.960;2023-04-16T04:28:48;54.55;;;16.08;;
35245;SDS011;21379;50.962;6.960;2023-04-16T04:31:16;58.95;;;17.58;;
35245;SDS011;21379;50.962;6.960;2023-04-16T04:33:43;56.45;;;16.48;;
35245;SDS011;21379;50.962;6.960;2023-04-16T04:36:11;59.45;;;17.60;;
35245;SDS011;21379;50.962;6.960;2023-04-16T04:38:38;58.33;;;19.52;;
35245;SDS011;21379;50.962;6.960;2023-04-16T04:41:05;54.88;;;19.77;;
35245;SDS011;21379;50.962;6.960;2023-04-16T04:43:34;61.40;;;18.88;;
35245;SDS011;21379;50.962;6.960;2023-04-16T04:46:03;56.58;;;19.48;;
35245;SDS011;21379;50.962;6.960;2023-04-16T04:48:31;58.17;;;20.98;;
35245;SDS011;21379;50.962;6.960;2023-04-16T04:50:58;57.70;;;18.40;;
35245;SDS011;21379;50.962;6.960;2023-04-16T04:53:25;63.40;;;20.10;;
35245;SDS011;21379;50.962;6.960;2023-04-16T04:55:53;52.90;;;19.85;;
35245;SDS011;21379;50.962;6.960;2023-04-16T04:58:20;52.78;;;17.15;;
35245;SDS011;21379;50.962;6.960;2023-04-16T05:00:47;60.33;;;20.27;;
35245;SDS011;21379;50.962;6.960;2023-04-16T05:03:18;54.78;;;20.38;;
35245;SDS011;21379;50.962;6.960;2023-04-16T05:05:46;53.95;;;20.65;;
35245;SDS011;21379;50.962;6.960;2023-04-16T05:08:13;47.90;;;18.48;;
35245;SDS011;21379;50.962;6.960;2023-04-16T05:10:40;46.03;;;16.00;;
35245;SDS011;21379;50.962;6.960;2023-04-16T05:13:07;40.42;;;15.48;;
35245;SDS011;21379;50.962;6.960;2023-04-16T05:15:34;64.00;;;19.85;;
35245;SDS011;21379;50.962;6.960;2023-04-16T05:18:01;52.45;;;18.23;;
35245;SDS011;21379;50.962;6.960;2023-04-16T05:20:29;58.45;;;16.80;;
35245;SDS011;21379;50.962;6.960;2023-04-16T05:22:56;44.25;;;14.57;;
35245;SDS011;21379;50.962;6.960;2023-04-16T05:25:23;43.40;;;15.82;;
35245;SDS011;21379;50.962;6.960;2023-04-16T05:27:50;45.38;;;15.70;;
35245;SDS011;21379;50.962;6.960;2023-04-16T05:30:17;46.38;;;16.10;;
35245;SDS011;21379;50.962;6.960;2023-04-16T05:32:44;49.42;;;16.27;;
35245;SDS011;21379;50.962;6.960;2023-04-16T05:35:11;46.70;;;16.00;;
35245;SDS011;21379;50.962;6.960;2023-04-16T05:37:42;55.08;;;15.27;;
35245;SDS011;21379;50.962;6.960;2023-04-16T05:40:10;52.35;;;14.65;;
35245;SDS011;21379;50.962;6.960;2023-04-16T05:42:38;46.33;;;16.17;;
35245;SDS011;21379;50.962;6.960;2023-04-16T05:45:05;43.58;;;13.98;;
35245;SDS011;21379;50.962;6.960;2023-04-16T05:47:33;42.40;;;15.60;;
35245;SDS011;21379;50.962;6.960;2023-04-16T05:50:00;42.00;;;13.68;;
35245;SDS011;21379;50.962;6.960;2023-04-16T05:52:27;40.30;;;15.15;;
35245;SDS011;21379;50.962;6.960;2023-04-16T05:54:55;46.85;;;14.48;;
35245;SDS011;21379;50.962;6.960;2023-04-16T05:57:25;41.67;;;14.05;;
35245;SDS011;21379;50.962;6.960;2023-04-16T05:59:52;40.42;;;13.82;;
35245;SDS011;21379;50.962;6.960;2023-04-16T06:02:19;37.67;;;15.60;;
35245;SDS011;21379;50.962;6.960;2023-04-16T06:04:46;44.03;;;16.02;;
35245;SDS011;21379;50.962;6.960;2023-04-16T06:07:14;47.53;;;16.27;;
35245;SDS011;21379;50.962;6.960;2023-04-16T06:09:40;37.75;;;15.65;;
35245;SDS011;21379;50.962;6.960;2023-04-16T06:12:09;45.58;;;15.27;;
35245;SDS011;21379;50.962;6.960;2023-04-16T06:14:36;42.50;;;15.93;;
35245;SDS011;21379;50.962;6.960;2023-04-16T06:17:03;43.50;;;15.73;;
35245;SDS011;21379;50.962;6.960;2023-04-16T06:19:29;40.65;;;15.60;;
35245;SDS011;21379;50.962;6.960;2023-04-16T06:21:56;42.38;;;15.85;;
35245;SDS011;21379;50.962;6.960;2023-04-16T06:24:23;44.97;;;15.05;;
35245;SDS011;21379;50.962;6.960;2023-04-16T06:26:50;59.70;;;16.40;;
35245;SDS011;21379;50.962;6.960;2023-04-16T06:29:19;49.33;;;16.95;;
35245;SDS011;21379;50.962;6.960;2023-04-16T06:31:46;50.42;;;13.80;;
35245;SDS011;21379;50.962;6.960;2023-04-16T06:34:13;60.15;;;17.63;;
35245;SDS011;21379;50.962;6.960;2023-04-16T06:36:40;53.20;;;16.30;;
35245;SDS011;21379;50.962;6.960;2023-04-16T06:39:08;37.65;;;14.02;;
35245;SDS011;21379;50.962;6.960;2023-04-16T06:41:35;36.03;;;14.57;;
35245;SDS011;21379;50.962;6.960;2023-04-16T06:44:02;37.67;;;14.85;;
35245;SDS011;21379;50.962;6.960;2023-04-16T06:46:30;50.17;;;14.82;;
35245;SDS011;21379;50.962;6.960;2023-04-16T06:48:57;35.92;;;12.77;;
35245;SDS011;21379;50.962;6.960;2023-04-16T06:51:24;37.53;;;13.98;;
35245;SDS011;21379;50.962;6.960;2023-04-16T06:53:51;41.67;;;14.40;;
35245;SDS011;21379;50.962;6.960;2023-04-16T06:56:18;34.08;;;13.57;;
35245;SDS011;21379;50.962;6.960;2023-04-16T06:58:45;40.33;;;14.02;;
35245;SDS011;21379;50.962;6.960;2023-04-16T07:01:12;30.92;;;12.35;;
35245;SDS011;21379;50.962;6.960;2023-04-16T07:03:41;38.10;;;15.85;;
35245;SDS011;21379;50.962;6.960;2023-04-16T07:06:08;39.00;;;14.20;;
35245;SDS011;21379;50.962;6.960;2023-04-16T07:08:35;36.90;;;14.27;;
35245;SDS011;21379;50.962;6.960;2023-04-16T07:11:02;38.83;;;15.77;;
35245;SDS011;21379;50.962;6.960;2023-04-16T07:13:29;37.38;;;13.77;;
35245;SDS011;21379;50.962;6.960;2023-04-16T07:15:56;44.60;;;13.95;;
35245;SDS011;21379;50.962;6.960;2023-04-16T07:18:22;42.03;;;14.73;;
35245;SDS011;21379;50.962;6.960;2023-04-16T07:20:51;35.15;;;15.10;;
35245;SDS011;21379;50.962;6.960;2023-04-16T07:23:18;51.75;;;15.82;;
35245;SDS011;21379;50.962;6.960;2023-04-16T07:25:45;39.95;;;14.23;;
35245;SDS011;21379;50.962;6.960;2023-04-16T07:28:11;30.80;;;12.93;;
35245;SDS011;21379;50.962;6.960;2023-04-16T07:30:40;33.65;;;13.07;;
35245;SDS011;21379;50.962;6.960;2023-04-16T07:33:08;42.13;;;12.68;;
35245;SDS011;21379;50.962;6.960;2023-04-16T07:35:35;44.20;;;14.02;;
35245;SDS011;21379;50.962;6.960;2023-04-16T07:38:03;44.22;;;15.13;;
35245;SDS011;21379;50.962;6.960;2023-04-16T07:40:30;37.30;;;13.07;;
35245;SDS011;21379;50.962;6.960;2023-04-16T07:42:57;34.80;;;13.15;;
35245;SDS011;21379;50.962;6.960;2023-04-16T07:45:24;39.55;;;13.82;;
35245;SDS011;21379;50.962;6.960;2023-04-16T07:47:51;37.33;;;11.15;;
35245;SDS011;21379;50.962;6.960;2023-04-16T07:50:18;32.78;;;11.40;;
35245;SDS011;21379;50.962;6.960;2023-04-16T07:52:45;35.60;;;13.50;;
35245;SDS011;21379;50.962;6.960;2023-04-16T07:55:13;37.70;;;13.70;;
35245;SDS011;21379;50.962;6.960;2023-04-16T07:57:40;37.33;;;12.48;;
35245;SDS011;21379;50.962;6.960;2023-04-16T08:00:07;34.92;;;14.23;;
35245;SDS011;21379;50.962;6.960;2023-04-16T08:02:38;38.13;;;13.50;;
35245;SDS011;21379;50.962;6.960;2023-04-16T08:05:05;40.85;;;14.40;;
35245;SDS011;21379;50.962;6.960;2023-04-16T08:07:32;42.03;;;14.13;;
35245;SDS011;21379;50.962;6.960;2023-04-16T08:10:00;33.30;;;13.23;;
35245;SDS011;21379;50.962;6.960;2023-04-16T08:12:28;39.63;;;14.73;;
35245;SDS011;21379;50.962;6.960;2023-04-16T08:14:55;38.50;;;11.68;;
35245;SDS011;21379;50.962;6.960;2023-04-16T08:17:22;29.75;;;13.43;;
35245;SDS011;21379;50.962;6.960;2023-04-16T08:19:49;37.08;;;13.70;;
35245;SDS011;21379;50.962;6.960;2023-04-16T08:22:16;33.70;;;12.73;;
35245;SDS011;21379;50.962;6.960;2023-04-16T08:24:43;28.85;;;12.93;;
35245;SDS011;21379;50.962;6.960;2023-04-16T08:27:10;30.45;;;12.00;;
35245;SDS011;21379;50.962;6.960;2023-04-16T08:29:38;31.95;;;13.20;;
35245;SDS011;21379;50.962;6.960;2023-04-16T08:32:05;28.10;;;12.30;;
35245;SDS011;21379;50.962;6.960;2023-04-16T08:34:33;37.13;;;14.38;;
35245;SDS011;21379;50.962;6.960;2023-04-16T08:37:00;43.25;;;14.18;;
35245;SDS011;21379;50.962;6.960;2023-04-16T08:39:27;40.03;;;12.52;;
35245;SDS011;21379;50.962;6.960;2023-04-16T08:41:54;29.65;;;13.75;;
35245;SDS011;21379;50.962;6.960;2023-04-16T08:44:24;34.83;;;13.65;;
35245;SDS011;21379;50.962;6.960;2023-04-16T08:46:54;34.20;;;12.35;;
35245;SDS011;21379;50.962;6.960;2023-04-16T08:49:23;34.45;;;12.77;;
35245;SDS011;21379;50.962;6.960;2023-04-16T08:51:51;32.67;;;13.10;;
35245;SDS011;21379;50.962;6.960;2023-04-16T08:54:37;29.25;;;11.65;;
35245;SDS011;21379;50.962;6.960;2023-04-16T08:57:09;28.02;;;12.02;;
35245;SDS011;21379;50.962;6.960;2023-04-16T08:59:37;32.90;;;11.10;;
35245;SDS011;21379;50.962;6.960;2023-04-16T09:02:06;30.35;;;12.52;;
35245;SDS011;21379;50.962;6.960;2023-04-16T09:04:38;33.97;;;11.65;;
35245;SDS011;21379;50.962;6.960;2023-04-16T09:07:06;32.13;;;12.43;;
35245;SDS011;21379;50.962;6.960;2023-04-16T09:09:34;30.73;;;12.63;;
35245;SDS011;21379;50.962;6.960;2023-04-16T09:12:03;23.90;;;11.18;;
35245;SDS011;21379;50.962;6.960;2023-04-16T09:14:30;29.13;;;13.23;;
35245;SDS011;21379;50.962;6.960;2023-04-16T09:16:57;33.97;;;12.45;;
35245;SDS011;21379;50.962;6.960;2023-04-16T09:19:27;21.08;;;10.23;;
35245;SDS011;21379;50.962;6.960;2023-04-16T09:21:54;28.45;;;12.25;;
35245;SDS011;21379;50.962;6.960;2023-04-16T09:24:21;26.27;;;11.55;;
35245;SDS011;21379;50.962;6.960;2023-04-16T09:26:49;26.40;;;10.43;;
35245;SDS011;21379;50.962;6.960;2023-04-16T09:29:31;33.42;;;12.02;;
35245;SDS011;21379;50.962;6.960;2023-04-16T09:32:00;27.55;;;12.00;;
35245;SDS011;21379;50.962;6.960;2023-04-16T09:34:29;27.08;;;12.45;;
35245;SDS011;21379;50.962;6.960;2023-04-16T09:37:12;27.77;;;13.70;;
35245;SDS011;21379;50.962;6.960;2023-04-16T09:39:41;36.78;;;12.65;;
35245;SDS011;21379;50.962;6.960;2023-04-16T09:42:08;33.03;;;13.35;;
35245;SDS011;21379;50.962;6.960;2023-04-16T09:44:35;36.38;;;14.90;;
35245;SDS011;21379;50.962;6.960;2023-04-16T09:47:04;25.38;;;11.68;;
35245;SDS011;21379;50.962;6.960;2023-04-16T09:49:34;32.85;;;13.98;;
35245;SDS011;21379;50.962;6.960;2023-04-16T09:52:08;32.80;;;12.95;;
35245;SDS011;21379;50.962;6.960;2023-04-16T09:54:38;26.10;;;12.52;;
35245;SDS011;21379;50.962;6.960;2023-04-16T09:57:11;24.15;;;11.55;;
35245;SDS011;21379;50.962;6.960;2023-04-16T09:59:38;36.88;;;13.45;;
35245;SDS011;21379;50.962;6.960;2023-04-16T10:02:06;30.10;;;12.13;;
35245;SDS011;21379;50.962;6.960;2023-04-16T10:04:45;29.75;;;12.63;;
35245;SDS011;21379;50.962;6.960;2023-04-16T10:07:12;29.65;;;14.07;;
35245;SDS011;21379;50.962;6.960;2023-04-16T10:09:39;32.63;;;14.50;;
35245;SDS011;21379;50.962;6.960;2023-04-16T10:12:06;33.47;;;12.65;;
35245;SDS011;21379;50.962;6.960;2023-04-16T10:14:34;27.58;;;13.05;;
35245;SDS011;21379;50.962;6.960;2023-04-16T10:17:01;30.50;;;12.30;;
35245;SDS011;21379;50.962;6.960;2023-04-16T10:19:30;26.95;;;11.85;;
35245;SDS011;21379;50.962;6.960;2023-04-16T10:21:59;26.02;;;11.68;;
35245;SDS011;21379;50.962;6.960;2023-04-16T10:24:27;25.48;;;12.43;;
35245;SDS011;21379;50.962;6.960;2023-04-16T10:26:54;30.38;;;11.55;;
35245;SDS011;21379;50.962;6.960;2023-04-16T10:29:21;20.35;;;10.15;;
35245;SDS011;21379;50.962;6.960;2023-04-16T10:31:49;24.00;;;9.95;;
35245;SDS011;21379;50.962;6.960;2023-04-16T10:34:17;23.08;;;11.90;;
35245;SDS011;21379;50.962;6.960;2023-04-16T10:36:46;19.55;;;10.35;;
35245;SDS011;21379;50.962;6.960;2023-04-16T10:39:16;24.88;;;11.10;;
35245;SDS011;21379;50.962;6.960;2023-04-16T10:41:44;27.90;;;11.70;;
35245;SDS011;21379;50.962;6.960;2023-04-16T10:44:11;22.60;;;10.43;;
35245;SDS011;21379;50.962;6.960;2023-04-16T10:46:39;29.05;;;11.80;;
35245;SDS011;21379;50.962;6.960;2023-04-16T10:49:13;21.27;;;10.77;;
35245;SDS011;21379;50.962;6.960;2023-04-16T10:51:42;21.83;;;10.65;;
35245;SDS011;21379;50.962;6.960;2023-04-16T10:54:20;21.25;;;10.77;;
35245;SDS011;21379;50.962;6.960;2023-04-16T10:56:50;21.98;;;10.95;;
35245;SDS011;21379;50.962;6.960;2023-04-16T10:59:18;26.95;;;11.88;;
35245;SDS011;21379;50.962;6.960;2023-04-16T11:01:47;22.45;;;11.18;;
35245;SDS011;21379;50.962;6.960;2023-04-16T11:04:25;23.60;;;10.65;;
35245;SDS011;21379;50.962;6.960;2023-04-16T11:07:00;23.90;;;11.13;;
35245;SDS011;21379;50.962;6.960;2023-04-16T11:09:46;18.55;;;10.13;;
35245;SDS011;21379;50.962;6.960;2023-04-16T11:12:18;21.98;;;10.48;;
35245;SDS011;21379;50.962;6.960;2023-04-16T11:14:47;20.50;;;10.38;;
35245;SDS011;21379;50.962;6.960;2023-04-16T11:17:15;20.23;;;9.57;;
35245;SDS011;21379;50.962;6.960;2023-04-16T11:19:42;22.88;;;10.20;;
35245;SDS011;21379;50.962;6.960;2023-04-16T11:22:11;19.02;;;10.18;;
35245;SDS011;21379;50.962;6.960;2023-04-16T11:24:39;22.02;;;10.68;;
35245;SDS011;21379;50.962;6.960;2023-04-16T11:27:07;20.90;;;10.02;;
35245;SDS011;21379;50.962;6.960;2023-04-16T11:29:35;26.42;;;10.20;;
35245;SDS011;21379;50.962;6.960;2023-04-16T11:32:02;23.45;;;10.82;;
35245;SDS011;21379;50.962;6.960;2023-04-16T11:34:29;22.52;;;9.80;;
35245;SDS011;21379;50.962;6.960;2023-04-16T11:36:56;17.77;;;8.75;;
35245;SDS011;21379;50.962;6.960;2023-04-16T11:39:23;21.02;;;9.65;;
35245;SDS011;21379;50.962;6.960;2023-04-16T11:41:50;23.65;;;10.95;;
35245;SDS011;21379;50.962;6.960;2023-04-16T11:44:22;22.17;;;9.68;;
35245;SDS011;21379;50.962;6.960;2023-04-16T11:46:50;22.90;;;9.68;;
35245;SDS011;21379;50.962;6.960;2023-04-16T11:49:25;16.85;;;9.88;;
35245;SDS011;21379;50.962;6.960;2023-04-16T11:51:52;21.02;;;10.27;;
35245;SDS011;21379;50.962;6.960;2023-04-16T11:54:20;14.60;;;8.93;;
35245;SDS011;21379;50.962;6.960;2023-04-16T11:56:49;24.30;;;10.00;;
35245;SDS011;21379;50.962;6.960;2023-04-16T11:59:18;27.10;;;11.38;;
35245;SDS011;21379;50.962;6.960;2023-04-16T12:01:49;26.17;;;12.35;;
35245;SDS011;21379;50.962;6.960;2023-04-16T12:04:18;26.05;;;10.38;;
35245;SDS011;21379;50.962;6.960;2023-04-16T12:07:04;23.15;;;10.57;;
35245;SDS011;21379;50.962;6.960;2023-04-16T12:09:32;27.55;;;11.55;;
35245;SDS011;21379;50.962;6.960;2023-04-16T12:12:00;23.48;;;11.35;;
35245;SDS011;21379;50.962;6.960;2023-04-16T12:14:27;21.02;;;10.27;;
35245;SDS011;21379;50.962;6.960;2023-04-16T12:16:56;27.15;;;10.93;;
35245;SDS011;21379;50.962;6.960;2023-04-16T12:19:49;17.13;;;10.35;;
35245;SDS011;21379;50.962;6.960;2023-04-16T12:22:17;26.90;;;11.70;;
35245;SDS011;21379;50.962;6.960;2023-04-16T12:27:21;23.10;;;10.68;;
35245;SDS011;21379;50.962;6.960;2023-04-16T12:30:01;30.88;;;11.05;;
35245;SDS011;21379;50.962;6.960;2023-04-16T12:32:34;26.45;;;11.57;;
35245;SDS011;21379;50.962;6.960;2023-04-16T12:35:01;22.80;;;11.25;;
35245;SDS011;21379;50.962;6.960;2023-04-16T12:37:28;22.30;;;10.98;;
35245;SDS011;21379;50.962;6.960;2023-04-16T12:39:54;24.00;;;10.98;;
35245;SDS011;21379;50.962;6.960;2023-04-16T12:42:21;17.90;;;9.68;;
35245;SDS011;21379;50.962;6.960;2023-04-16T12:44:48;19.13;;;9.60;;
35245;SDS011;21379;50.962;6.960;2023-04-16T12:47:15;14.40;;;9.40;;
35245;SDS011;21379;50.962;6.960;2023-04-16T12:49:44;19.25;;;10.43;;
35245;SDS011;21379;50.962;6.960;2023-04-16T12:52:11;20.33;;;11.00;;
35245;SDS011;21379;50.962;6.960;2023-04-16T12:54:37;21.08;;;10.07;;
35245;SDS011;21379;50.962;6.960;2023-04-16T12:57:05;15.30;;;9.23;;
35245;SDS011;21379;50.962;6.960;2023-04-16T12:59:32;13.95;;;9.48;;
35245;SDS011;21379;50.962;6.960;2023-04-16T13:01:59;15.15;;;8.60;;
35245;SDS011;21379;50.962;6.960;2023-04-16T13:04:26;18.67;;;8.90;;
35245;SDS011;21379;50.962;6.960;2023-04-16T13:06:55;19.10;;;8.60;;
35245;SDS011;21379;50.962;6.960;2023-04-16T13:09:22;15.02;;;8.35;;
35245;SDS011;21379;50.962;6.960;2023-04-16T13:11:49;14.52;;;8.25;;
35245;SDS011;21379;50.962;6.960;2023-04-16T13:14:16;22.83;;;9.07;;
35245;SDS011;21379;50.962;6.960;2023-04-16T13:16:42;19.60;;;8.93;;
35245;SDS011;21379;50.962;6.960;2023-04-16T13:19:09;17.75;;;9.10;;
35245;SDS011;21379;50.962;6.960;2023-04-16T13:21:36;18.55;;;8.88;;
35245;SDS011;21379;50.962;6.960;2023-04-16T13:24:05;16.63;;;9.25;;
35245;SDS011;21379;50.962;6.960;2023-04-16T13:26:32;16.88;;;7.88;;
35245;SDS011;21379;50.962;6.960;2023-04-16T13:28:59;18.50;;;8.98;;
35245;SDS011;21379;50.962;6.960;2023-04-16T13:31:26;14.57;;;7.95;;
35245;SDS011;21379;50.962;6.960;2023-04-16T13:33:53;11.40;;;6.85;;
35245;SDS011;21379;50.962;6.960;2023-04-16T13:36:20;11.15;;;6.32;;
35245;SDS011;21379;50.962;6.960;2023-04-16T13:38:47;14.48;;;7.97;;
35245;SDS011;21379;50.962;6.960;2023-04-16T13:41:16;12.77;;;7.75;;
35245;SDS011;21379;50.962;6.960;2023-04-16T13:43:42;14.30;;;8.00;;
35245;SDS011;21379;50.962;6.960;2023-04-16T13:46:10;17.50;;;8.90;;
35245;SDS011;21379;50.962;6.960;2023-04-16T13:48:37;14.90;;;8.32;;
35245;SDS011;21379;50.962;6.960;2023-04-16T13:51:04;15.93;;;8.40;;
35245;SDS011;21379;50.962;6.960;2023-04-16T13:53:32;12.48;;;7.38;;
35245;SDS011;21379;50.962;6.960;2023-04-16T13:55:59;16.63;;;8.73;;
35245;SDS011;21379;50.962;6.960;2023-04-16T13:58:29;15.98;;;7.38;;
35245;SDS011;21379;50.962;6.960;2023-04-16T14:00:56;9.48;;;7.10;;
35245;SDS011;21379;50.962;6.960;2023-04-16T14:03:23;11.15;;;6.80;;
35245;SDS011;21379;50.962;6.960;2023-04-16T14:05:51;15.05;;;8.10;;
35245;SDS011;21379;50.962;6.960;2023-04-16T14:08:18;16.30;;;7.07;;
35245;SDS011;21379;50.962;6.960;2023-04-16T14:10:45;11.50;;;6.75;;
35245;SDS011;21379;50.962;6.960;2023-04-16T14:13:12;8.95;;;6.35;;
35245;SDS011;21379;50.962;6.960;2023-04-16T14:15:40;11.95;;;7.07;;
35245;SDS011;21379;50.962;6.960;2023-04-16T14:18:07;14.32;;;7.95;;
35245;SDS011;21379;50.962;6.960;2023-04-16T14:20:34;17.52;;;7.95;;
35245;SDS011;21379;50.962;6.960;2023-04-16T14:23:04;10.50;;;7.25;;
35245;SDS011;21379;50.962;6.960;2023-04-16T14:25:31;12.38;;;7.47;;
35245;SDS011;21379;50.962;6.960;2023-04-16T14:27:58;13.95;;;7.70;;
35245;SDS011;21379;50.962;6.960;2023-04-16T14:30:25;13.45;;;7.55;;
35245;SDS011;21379;50.962;6.960;2023-04-16T14:32:54;15.50;;;7.82;;
35245;SDS011;21379;50.962;6.960;2023-04-16T14:35:21;14.93;;;7.43;;